createdAt,value
2022-11-29T00:01:30.662Z,96.34
2022-11-29T00:03:58.260Z,95.76
2022-11-29T00:06:27.480Z,96.22
2022-11-29T00:08:55.986Z,94.87
2022-11-29T00:11:44.866Z,100.00
2022-11-29T00:14:14.580Z,100.00
2022-11-29T00:16:42.358Z,98.52
2022-11-29T00:19:10.780Z,97.44
2022-11-29T00:21:37.628Z,96.53
2022-11-29T00:24:05.096Z,100.00
2022-11-29T00:26:31.978Z,100.00
2022-11-29T00:28:58.669Z,100.00
2022-11-29T00:31:30.527Z,100.00
2022-11-29T00:34:02.996Z,100.00
2022-11-29T00:36:30.229Z,100.00
2022-11-29T00:38:57.203Z,100.00
2022-11-29T00:41:24.191Z,100.00
2022-11-29T00:43:50.988Z,100.00
2022-11-29T00:46:17.916Z,100.00
2022-11-29T00:48:44.722Z,100.00
2022-11-29T00:51:11.913Z,100.00
2022-11-29T00:53:38.949Z,100.00
2022-11-29T00:56:06.312Z,100.00
2022-11-29T00:58:36.508Z,100.00
2022-11-29T01:01:04.066Z,100.00
2022-11-29T01:03:31.547Z,100.00
2022-11-29T01:06:06.306Z,100.00
2022-11-29T01:08:33.266Z,100.00
2022-11-29T01:11:23.681Z,100.00
2022-11-29T01:13:53.430Z,100.00
2022-11-29T01:16:20.292Z,100.00
2022-11-29T01:18:47.146Z,100.00
2022-11-29T01:21:20.741Z,100.00
2022-11-29T01:23:49.180Z,100.00
2022-11-29T01:26:20.789Z,100.00
2022-11-29T01:28:49.229Z,100.00
2022-11-29T01:31:19.589Z,100.00
2022-11-29T01:33:47.258Z,100.00
2022-11-29T01:36:14.580Z,100.00
2022-11-29T01:38:42.671Z,100.00
2022-11-29T01:41:13.719Z,100.00
2022-11-29T01:44:12.984Z,100.00
2022-11-29T01:46:45.387Z,100.00
2022-11-29T01:49:24.348Z,100.00
2022-11-29T01:52:17.019Z,100.00
2022-11-29T01:54:58.039Z,100.00
2022-11-29T01:57:26.082Z,100.00
2022-11-29T01:59:58.419Z,100.00
2022-11-29T02:02:32.864Z,100.00
2022-11-29T02:05:01.272Z,100.00
2022-11-29T02:07:28.306Z,100.00
2022-11-29T02:09:55.042Z,100.00
2022-11-29T02:12:58.400Z,100.00
2022-11-29T02:15:52.336Z,100.00
2022-11-29T02:18:37.402Z,100.00
2022-11-29T02:21:10.070Z,100.00
2022-11-29T02:24:04.389Z,100.00
2022-11-29T02:27:06.505Z,100.00
2022-11-29T02:30:27.229Z,99.06
2022-11-29T02:33:15.387Z,100.00
2022-11-29T02:36:16.627Z,100.00
2022-11-29T02:39:04.707Z,100.00
2022-11-29T02:41:55.267Z,100.00
2022-11-29T02:44:52.424Z,100.00
2022-11-29T02:47:24.907Z,100.00
2022-11-29T02:50:17.755Z,100.00
2022-11-29T02:53:02.551Z,100.00
2022-11-29T02:55:37.580Z,100.00
2022-11-29T02:58:25.938Z,99.18
2022-11-29T03:01:11.522Z,98.93
2022-11-29T03:04:14.060Z,99.26
2022-11-29T03:07:00.187Z,97.64
2022-11-29T03:10:00.461Z,96.98
2022-11-29T03:12:39.498Z,100.00
2022-11-29T03:15:16.989Z,100.00
2022-11-29T03:18:01.858Z,100.00
2022-11-29T03:20:50.426Z,100.00
2022-11-29T03:23:32.978Z,100.00
2022-11-29T03:26:04.138Z,100.00
2022-11-29T03:28:47.399Z,100.00
2022-11-29T03:31:30.164Z,100.00
2022-11-29T03:34:06.161Z,100.00
2022-11-29T03:36:44.472Z,100.00
2022-11-29T03:39:19.000Z,100.00
2022-11-29T03:41:52.390Z,100.00
2022-11-29T03:44:59.587Z,100.00
2022-11-29T03:47:37.106Z,100.00
2022-11-29T03:50:27.507Z,100.00
2022-11-29T03:53:01.707Z,100.00
2022-11-29T03:55:48.072Z,100.00
2022-11-29T03:58:39.306Z,100.00
2022-11-29T04:01:37.647Z,100.00
2022-11-29T04:04:46.288Z,100.00
2022-11-29T04:07:31.130Z,100.00
2022-11-29T04:10:28.105Z,100.00
2022-11-29T04:13:26.545Z,100.00
2022-11-29T04:16:03.208Z,100.00
2022-11-29T04:18:44.701Z,99.28
2022-11-29T04:21:23.381Z,99.41
2022-11-29T04:23:59.500Z,100.00
2022-11-29T04:26:51.778Z,100.00
2022-11-29T04:29:48.380Z,100.00
2022-11-29T04:32:39.858Z,100.00
2022-11-29T04:35:35.429Z,100.00
2022-11-29T04:38:20.899Z,99.67
2022-11-29T04:40:56.019Z,99.67
2022-11-29T04:43:28.627Z,100.00
2022-11-29T04:46:14.863Z,100.00
2022-11-29T04:48:52.420Z,100.00
2022-11-29T04:51:34.300Z,100.00
2022-11-29T04:54:19.337Z,100.00
2022-11-29T04:56:51.161Z,99.81
2022-11-29T04:59:47.428Z,100.00
2022-11-29T05:02:42.091Z,100.00
2022-11-29T05:05:18.017Z,100.00
2022-11-29T05:08:30.241Z,100.00
2022-11-29T05:11:35.146Z,100.00
2022-11-29T05:14:06.587Z,100.00
2022-11-29T05:16:42.306Z,100.00
2022-11-29T05:19:35.592Z,100.00
2022-11-29T05:22:21.107Z,100.00
2022-11-29T05:25:03.143Z,100.00
2022-11-29T05:27:45.511Z,100.00
2022-11-29T05:30:16.849Z,100.00
2022-11-29T05:33:10.937Z,100.00
2022-11-29T05:39:48.345Z,100.00
2022-11-29T05:42:37.171Z,100.00
2022-11-29T05:45:30.738Z,100.00
2022-11-29T05:48:24.133Z,100.00
2022-11-29T05:51:06.414Z,100.00
2022-11-29T05:53:35.956Z,100.00
2022-11-29T05:56:14.696Z,100.00
2022-11-29T05:58:52.460Z,100.00
2022-11-29T06:01:26.572Z,100.00
2022-11-29T06:04:00.115Z,100.00
2022-11-29T06:06:58.914Z,100.00
2022-11-29T06:09:35.597Z,100.00
2022-11-29T06:12:07.317Z,100.00
2022-11-29T06:14:46.382Z,100.00
2022-11-29T06:17:31.088Z,100.00
2022-11-29T06:20:04.581Z,100.00
2022-11-29T06:22:54.664Z,100.00
2022-11-29T06:25:27.349Z,100.00
2022-11-29T06:28:05.759Z,100.00
2022-11-29T06:30:55.596Z,100.00
2022-11-29T06:33:34.903Z,100.00
2022-11-29T06:36:12.101Z,100.00
2022-11-29T06:38:39.025Z,100.00
2022-11-29T06:41:06.191Z,100.00
2022-11-29T06:43:33.814Z,100.00
2022-11-29T06:46:34.015Z,100.00
2022-11-29T06:49:32.971Z,100.00
2022-11-29T06:52:27.054Z,100.00
2022-11-29T06:55:16.132Z,100.00
2022-11-29T06:58:01.253Z,100.00
2022-11-29T07:00:52.213Z,100.00
2022-11-29T07:03:36.582Z,100.00
2022-11-29T07:06:21.099Z,100.00
2022-11-29T07:08:52.533Z,100.00
2022-11-29T07:11:19.574Z,100.00
2022-11-29T07:13:46.733Z,100.00
2022-11-29T07:16:22.889Z,100.00
2022-11-29T07:19:17.670Z,100.00
2022-11-29T07:22:04.374Z,100.00
2022-11-29T07:24:49.293Z,100.00
2022-11-29T07:27:16.014Z,100.00
2022-11-29T07:30:16.102Z,100.00
2022-11-29T07:32:59.917Z,100.00
2022-11-29T07:35:45.356Z,100.00
2022-11-29T07:38:21.056Z,100.00
2022-11-29T07:41:02.959Z,100.00
2022-11-29T07:43:51.864Z,100.00
2022-11-29T07:46:18.628Z,100.00
2022-11-29T07:48:45.397Z,100.00
2022-11-29T07:51:12.701Z,100.00
2022-11-29T07:53:43.236Z,100.00
2022-11-29T07:56:10.383Z,100.00
2022-11-29T07:58:37.080Z,100.00
2022-11-29T08:01:04.239Z,100.00
2022-11-29T08:03:31.241Z,100.00
2022-11-29T08:05:57.986Z,100.00
2022-11-29T08:08:24.750Z,100.00
2022-11-29T08:10:51.506Z,100.00
2022-11-29T08:13:20.866Z,100.00
2022-11-29T08:15:48.933Z,100.00
2022-11-29T08:18:16.265Z,100.00
2022-11-29T08:20:44.101Z,100.00
2022-11-29T08:23:12.866Z,100.00
2022-11-29T08:25:40.335Z,100.00
2022-11-29T08:28:07.063Z,100.00
2022-11-29T08:30:33.901Z,100.00
2022-11-29T08:33:00.612Z,100.00
2022-11-29T08:35:27.454Z,100.00
2022-11-29T08:37:55.255Z,100.00
2022-11-29T08:40:22.292Z,100.00
2022-11-29T08:42:49.040Z,100.00
2022-11-29T08:45:15.894Z,100.00
2022-11-29T08:47:43.099Z,100.00
2022-11-29T08:50:14.742Z,100.00
2022-11-29T08:53:05.296Z,100.00
2022-11-29T08:55:37.813Z,100.00
2022-11-29T08:58:08.424Z,100.00
2022-11-29T09:00:35.975Z,100.00
2022-11-29T09:03:22.495Z,100.00
2022-11-29T09:05:49.340Z,100.00
2022-11-29T09:08:16.140Z,100.00
2022-11-29T09:10:43.394Z,100.00
2022-11-29T09:13:10.711Z,100.00
2022-11-29T09:15:42.036Z,100.00
2022-11-29T09:18:08.774Z,100.00
2022-11-29T09:20:35.733Z,100.00
2022-11-29T09:23:03.179Z,100.00
2022-11-29T09:25:30.022Z,100.00
2022-11-29T09:27:59.309Z,100.00
2022-11-29T09:30:26.624Z,100.00
2022-11-29T09:32:53.419Z,100.00
2022-11-29T09:35:20.100Z,100.00
2022-11-29T09:37:46.955Z,100.00
2022-11-29T09:40:23.178Z,100.00
2022-11-29T09:43:07.222Z,100.00
2022-11-29T09:45:42.697Z,100.00
2022-11-29T09:48:31.194Z,100.00
2022-11-29T09:51:15.667Z,100.00
2022-11-29T09:54:05.740Z,100.00
2022-11-29T09:56:41.421Z,100.00
2022-11-29T09:59:18.656Z,100.00
2022-11-29T10:02:21.983Z,100.00
2022-11-29T10:05:06.761Z,100.00
2022-11-29T10:07:43.708Z,100.00
2022-11-29T10:10:37.901Z,100.00
2022-11-29T10:13:17.451Z,100.00
2022-11-29T10:15:47.588Z,100.00
2022-11-29T10:18:23.300Z,100.00
2022-11-29T10:20:52.614Z,100.00
2022-11-29T10:23:33.263Z,100.00
2022-11-29T10:26:00.412Z,100.00
2022-11-29T10:28:33.655Z,100.00
2022-11-29T10:31:19.397Z,100.00
2022-11-29T10:33:47.054Z,100.00
2022-11-29T10:36:32.032Z,100.00
2022-11-29T10:39:08.745Z,100.00
2022-11-29T10:41:38.893Z,100.00
2022-11-29T10:44:06.014Z,100.00
2022-11-29T10:46:36.259Z,100.00
2022-11-29T10:49:12.212Z,100.00
2022-11-29T10:51:39.138Z,100.00
2022-11-29T10:54:24.011Z,100.00
2022-11-29T10:56:52.175Z,100.00
2022-11-29T10:59:25.173Z,100.00
2022-11-29T11:01:52.705Z,100.00
2022-11-29T11:04:33.901Z,100.00
2022-11-29T11:07:03.132Z,100.00
2022-11-29T11:09:33.397Z,100.00
2022-11-29T11:12:04.874Z,100.00
2022-11-29T11:14:40.960Z,100.00
2022-11-29T11:17:27.267Z,100.00
2022-11-29T11:20:08.946Z,100.00
2022-11-29T11:22:39.997Z,100.00
2022-11-29T11:25:27.783Z,100.00
2022-11-29T11:27:55.758Z,100.00
2022-11-29T11:30:28.550Z,100.00
2022-11-29T11:33:25.974Z,100.00
2022-11-29T11:36:11.421Z,100.00
2022-11-29T11:38:41.867Z,100.00
2022-11-29T11:41:14.469Z,100.00
2022-11-29T11:43:41.421Z,100.00
2022-11-29T11:46:08.579Z,100.00
2022-11-29T11:48:36.141Z,100.00
2022-11-29T11:51:03.259Z,100.00
2022-11-29T11:53:36.761Z,100.00
2022-11-29T11:56:10.585Z,100.00
2022-11-29T11:58:43.305Z,100.00
2022-11-29T12:01:13.019Z,100.00
2022-11-29T12:04:04.465Z,100.00
2022-11-29T12:06:49.078Z,100.00
2022-11-29T12:09:55.106Z,100.00
2022-11-29T12:12:41.972Z,100.00
2022-11-29T12:15:16.375Z,100.00
2022-11-29T12:18:04.660Z,100.00
2022-11-29T12:20:42.894Z,100.00
2022-11-29T12:23:12.724Z,100.00
2022-11-29T12:25:52.188Z,100.00
2022-11-29T12:28:21.613Z,100.00
2022-11-29T12:30:57.379Z,100.00
2022-11-29T12:33:33.027Z,100.00
2022-11-29T12:36:26.506Z,100.00
2022-11-29T12:39:37.702Z,100.00
2022-11-29T12:42:45.855Z,100.00
2022-11-29T12:45:30.812Z,100.00
2022-11-29T12:48:19.132Z,100.00
2022-11-29T12:51:05.427Z,100.00
2022-11-29T12:53:45.542Z,100.00
2022-11-29T12:56:24.116Z,100.00
2022-11-29T12:58:56.945Z,100.00
2022-11-29T13:01:34.536Z,100.00
2022-11-29T13:04:16.334Z,100.00
2022-11-29T13:07:27.930Z,100.00
2022-11-29T13:10:25.814Z,100.00
2022-11-29T13:13:13.180Z,100.00
2022-11-29T13:15:46.830Z,100.00
2022-11-29T13:18:34.905Z,100.00
2022-11-29T13:21:13.482Z,100.00
2022-11-29T13:24:08.261Z,100.00
2022-11-29T13:26:37.916Z,100.00
2022-11-29T13:29:06.423Z,100.00
2022-11-29T13:31:34.029Z,100.00
2022-11-29T13:34:22.468Z,100.00
2022-11-29T13:37:24.660Z,100.00
2022-11-29T13:40:09.821Z,100.00
2022-11-29T13:42:49.902Z,100.00
2022-11-29T13:45:34.465Z,100.00
2022-11-29T13:48:24.974Z,100.00
2022-11-29T13:50:56.789Z,100.00
2022-11-29T13:53:31.141Z,100.00
2022-11-29T13:56:02.660Z,100.00
2022-11-29T13:58:29.381Z,100.00
2022-11-29T14:01:02.230Z,100.00
2022-11-29T14:03:53.913Z,100.00
2022-11-29T14:06:48.302Z,100.00
2022-11-29T14:09:19.551Z,100.00
2022-11-29T14:12:03.219Z,100.00
2022-11-29T14:15:01.902Z,100.00
2022-11-29T14:17:50.900Z,100.00
2022-11-29T14:20:23.827Z,100.00
2022-11-29T14:23:05.800Z,100.00
2022-11-29T14:25:51.643Z,100.00
2022-11-29T14:28:22.053Z,100.00
2022-11-29T14:30:52.849Z,100.00
2022-11-29T14:33:26.978Z,100.00
2022-11-29T14:36:04.780Z,100.00
2022-11-29T14:38:46.332Z,100.00
2022-11-29T14:41:50.496Z,100.00
2022-11-29T14:44:24.257Z,100.00
2022-11-29T14:47:02.539Z,100.00
2022-11-29T14:49:30.331Z,100.00
2022-11-29T14:52:09.665Z,100.00
2022-11-29T14:54:54.633Z,100.00
2022-11-29T14:57:55.813Z,100.00
2022-11-29T15:00:48.695Z,100.00
2022-11-29T15:03:28.468Z,100.00
2022-11-29T15:06:15.695Z,100.00
2022-11-29T15:08:52.862Z,100.00
2022-11-29T15:11:52.139Z,100.00
2022-11-29T15:14:37.576Z,100.00
2022-11-29T15:17:08.053Z,100.00
2022-11-29T15:20:25.053Z,100.00
2022-11-29T15:22:54.263Z,100.00
2022-11-29T15:25:23.932Z,100.00
2022-11-29T15:28:14.507Z,100.00
2022-11-29T15:30:43.091Z,100.00
2022-11-29T15:33:24.702Z,100.00
2022-11-29T15:35:57.382Z,100.00
2022-11-29T15:38:24.637Z,100.00
2022-11-29T15:40:54.675Z,100.00
2022-11-29T15:43:26.639Z,100.00
2022-11-29T15:45:55.747Z,100.00
2022-11-29T15:48:24.501Z,100.00
2022-11-29T15:51:04.917Z,100.00
2022-11-29T15:54:13.145Z,100.00
2022-11-29T15:56:52.153Z,100.00
2022-11-29T15:59:37.061Z,100.00
2022-11-29T16:02:19.321Z,100.00
2022-11-29T16:04:49.253Z,100.00
2022-11-29T16:07:18.287Z,100.00
2022-11-29T16:09:51.465Z,100.00
2022-11-29T16:12:18.858Z,100.00
2022-11-29T16:14:50.702Z,100.00
2022-11-29T16:17:20.643Z,100.00
2022-11-29T16:19:47.941Z,100.00
2022-11-29T16:22:26.539Z,100.00
2022-11-29T16:24:55.938Z,100.00
2022-11-29T16:27:24.107Z,100.00
2022-11-29T16:29:55.258Z,100.00
2022-11-29T16:32:30.372Z,100.00
2022-11-29T16:35:06.054Z,100.00
2022-11-29T16:37:42.663Z,100.00
2022-11-29T16:40:23.119Z,100.00
2022-11-29T16:43:18.975Z,100.00
2022-11-29T16:45:46.979Z,100.00
2022-11-29T16:48:22.781Z,100.00
2022-11-29T16:51:08.297Z,100.00
2022-11-29T16:53:37.733Z,100.00
2022-11-29T16:56:05.658Z,100.00
2022-11-29T16:58:36.382Z,100.00
2022-11-29T17:01:21.831Z,100.00
2022-11-29T17:03:48.694Z,100.00
2022-11-29T17:06:18.654Z,100.00
2022-11-29T17:08:45.893Z,100.00
2022-11-29T17:11:13.173Z,100.00
2022-11-29T17:13:39.980Z,100.00
2022-11-29T17:16:11.845Z,100.00
2022-11-29T17:18:38.816Z,100.00
2022-11-29T17:21:05.620Z,100.00
2022-11-29T17:23:32.414Z,100.00
2022-11-29T17:26:01.103Z,100.00
2022-11-29T17:28:28.015Z,100.00
2022-11-29T17:30:55.214Z,100.00
2022-11-29T17:33:21.986Z,100.00
2022-11-29T17:35:48.775Z,100.00
2022-11-29T17:38:15.574Z,100.00
2022-11-29T17:40:42.314Z,100.00
2022-11-29T17:43:08.956Z,100.00
2022-11-29T17:45:38.319Z,100.00
2022-11-29T17:48:05.195Z,100.00
2022-11-29T17:50:31.900Z,100.00
2022-11-29T17:52:58.669Z,100.00
2022-11-29T17:55:29.424Z,100.00
2022-11-29T17:57:56.540Z,100.00
2022-11-29T18:00:23.461Z,100.00
2022-11-29T18:02:50.234Z,100.00
2022-11-29T18:05:17.706Z,100.00
2022-11-29T18:07:58.135Z,100.00
2022-11-29T18:10:26.618Z,100.00
2022-11-29T18:12:53.426Z,100.00
2022-11-29T18:15:20.332Z,100.00
2022-11-29T18:17:47.101Z,100.00
2022-11-29T18:20:14.432Z,100.00
2022-11-29T18:22:41.178Z,100.00
2022-11-29T18:25:36.895Z,100.00
2022-11-29T18:27:55.067Z,100.00
2022-11-29T18:30:21.779Z,100.00
2022-11-29T18:32:48.477Z,100.00
2022-11-29T18:35:15.258Z,100.00
2022-11-29T18:38:13.578Z,100.00
2022-11-29T18:40:28.698Z,100.00
2022-11-29T18:42:55.619Z,100.00
2022-11-29T18:45:22.301Z,100.00
2022-11-29T18:47:49.058Z,100.00
2022-11-29T18:50:15.811Z,100.00
2022-11-29T18:52:42.538Z,100.00
2022-11-29T18:55:09.559Z,100.00
2022-11-29T18:57:36.254Z,100.00
2022-11-29T19:00:04.677Z,100.00
2022-11-29T19:02:31.491Z,100.00
2022-11-29T19:04:58.297Z,100.00
2022-11-29T19:07:25.037Z,100.00
2022-11-29T19:09:51.822Z,100.00
2022-11-29T19:12:18.500Z,100.00
2022-11-29T19:14:49.657Z,100.00
2022-11-29T19:17:16.816Z,100.00
2022-11-29T19:19:43.723Z,100.00
2022-11-29T19:22:10.740Z,100.00
2022-11-29T19:24:37.575Z,100.00
2022-11-29T19:27:04.899Z,100.00
2022-11-29T19:29:36.709Z,100.00
2022-11-29T19:32:08.611Z,100.00
2022-11-29T19:34:35.291Z,100.00
2022-11-29T19:37:02.020Z,100.00
2022-11-29T19:39:29.453Z,100.00
2022-11-29T19:41:56.211Z,100.00
2022-11-29T19:44:27.991Z,100.00
2022-11-29T19:46:56.662Z,100.00
2022-11-29T19:49:23.414Z,100.00
2022-11-29T19:51:50.238Z,100.00
2022-11-29T19:54:17.277Z,100.00
2022-11-29T19:56:44.073Z,100.00
2022-11-29T19:59:10.863Z,100.00
2022-11-29T20:01:42.758Z,100.00
2022-11-29T20:04:12.463Z,100.00
2022-11-29T20:06:41.043Z,100.00
2022-11-29T20:09:08.021Z,100.00
2022-11-29T20:11:35.112Z,100.00
2022-11-29T20:14:03.860Z,100.00
2022-11-29T20:16:31.734Z,100.00
2022-11-29T20:18:59.122Z,100.00
2022-11-29T20:21:32.649Z,100.00
2022-11-29T20:24:06.065Z,100.00
2022-11-29T20:26:34.796Z,100.00
2022-11-29T20:29:02.275Z,100.00
2022-11-29T20:31:29.623Z,100.00
2022-11-29T20:33:57.665Z,100.00
2022-11-29T20:36:36.461Z,100.00
2022-11-29T20:39:31.187Z,100.00
2022-11-29T20:42:16.461Z,100.00
2022-11-29T20:44:54.178Z,100.00
2022-11-29T20:47:24.068Z,100.00
2022-11-29T20:49:50.941Z,100.00
2022-11-29T20:52:45.661Z,100.00
2022-11-29T20:55:12.382Z,100.00
2022-11-29T20:57:39.102Z,100.00
2022-11-29T21:00:08.901Z,100.00
2022-11-29T21:02:35.698Z,100.00
2022-11-29T21:05:02.501Z,100.00
2022-11-29T21:07:29.494Z,100.00
2022-11-29T21:10:00.931Z,100.00
2022-11-29T21:12:29.298Z,100.00
2022-11-29T21:14:56.374Z,100.00
2022-11-29T21:17:24.224Z,100.00
2022-11-29T21:19:53.734Z,100.00
2022-11-29T21:22:39.863Z,100.00
2022-11-29T21:25:30.456Z,100.00
2022-11-29T21:27:57.668Z,100.00
2022-11-29T21:30:25.492Z,100.00
2022-11-29T21:32:52.694Z,100.00
2022-11-29T21:35:19.541Z,100.00
2022-11-29T21:37:46.598Z,100.00
2022-11-29T21:40:14.818Z,100.00
2022-11-29T21:42:41.658Z,100.00
2022-11-29T21:45:14.925Z,100.00
2022-11-29T21:47:44.053Z,100.00
2022-11-29T21:50:12.398Z,100.00
2022-11-29T21:52:39.469Z,100.00
2022-11-29T21:55:06.820Z,100.00
2022-11-29T21:57:33.619Z,100.00
2022-11-29T22:00:00.277Z,100.00
2022-11-29T22:02:27.066Z,100.00
2022-11-29T22:04:53.779Z,100.00
2022-11-29T22:07:20.733Z,100.00
2022-11-29T22:09:47.398Z,100.00
2022-11-29T22:12:32.976Z,99.49
2022-11-29T22:15:00.220Z,100.00
2022-11-29T22:17:26.984Z,99.72
2022-11-29T22:19:53.709Z,99.05
2022-11-29T22:22:20.422Z,98.56
2022-11-29T22:24:47.510Z,97.76
2022-11-29T22:27:14.465Z,97.75
2022-11-29T22:29:41.251Z,97.28
2022-11-29T22:32:07.942Z,97.13
2022-11-29T22:34:34.791Z,96.37
2022-11-29T22:37:01.571Z,97.86
2022-11-29T22:39:28.335Z,96.20
2022-11-29T22:41:55.458Z,97.20
2022-11-29T22:44:23.881Z,97.19
2022-11-29T22:46:51.167Z,98.97
2022-11-29T22:49:17.934Z,99.74
2022-11-29T22:51:44.696Z,99.78
2022-11-29T22:54:11.972Z,100.00
2022-11-29T22:56:41.661Z,98.94
2022-11-29T22:59:09.414Z,98.93
2022-11-29T23:01:38.982Z,97.07
2022-11-29T23:04:08.270Z,97.33
2022-11-29T23:06:37.895Z,96.70
2022-11-29T23:09:08.092Z,96.57
2022-11-29T23:11:34.859Z,97.38
2022-11-29T23:14:01.572Z,98.55
2022-11-29T23:16:30.098Z,97.88
2022-11-29T23:18:58.860Z,99.59
2022-11-29T23:21:28.637Z,98.56
2022-11-29T23:23:57.012Z,100.00
2022-11-29T23:26:25.430Z,100.00
2022-11-29T23:28:53.373Z,98.83
2022-11-29T23:31:20.838Z,98.50
2022-11-29T23:33:47.740Z,98.17
2022-11-29T23:36:15.421Z,97.18
2022-11-29T23:38:42.758Z,96.91
2022-11-29T23:41:10.374Z,96.65
2022-11-29T23:43:38.836Z,95.41
2022-11-29T23:46:12.341Z,96.85
2022-11-29T23:48:39.138Z,96.56
2022-11-29T23:51:06.135Z,97.22
2022-11-29T23:53:33.181Z,97.60
2022-11-29T23:56:05.470Z,97.23
2022-11-29T23:58:32.465Z,98.50
